Coffman, Missouri
Current Conditions -  °F | °C
As of 10:15 AM on Monday 22 Dec 2014 (Local Time) from KSAR Reporting Station
Light Rain Light Rain  
Wind Chill: 40°   Ceiling: 400
Heat Index: 44°   Visibility: 4mi
Dew Point: 43°   Wind: 7mph
Humidity: 97%   Direction: 120°ESE
Pressure: 29.76"   Gusts: NA
Location:  37.9762°N, 90.0499°W
Report Text: KSAR 221615Z AUTO 12006KT 4SM -RA OVC004 07/06 A2976 RMK AO2 T00650060
Loading
Personal Weather Stations






























Interactive Weather Map New forecast layout! Learn more

10-Day Weather Forecast

Advertisements
Track Severe Weather on mobile